Time;durP1;ratioP1;P1;durP2;ratioP2;P2;SDS_P1;SDS_P2;PMS_P1;PMS_P2;Temp;Humidity;BMP_temperature;BMP_pressure;BME280_temperature;BME280_humidity;BME280_pressure;Samples;Min_cycle;Max_cycle;Signal;HPM_P1;HPM_P2
2021/06/10 00:00:24;;;;;;;16.63;14.90;;;;;;;;;;5040299;28;20180;-75
2021/06/10 00:03:28;;;;;;;19.47;17.40;;;;;;;;;;5075437;28;20182;-73
2021/06/10 00:06:32;;;;;;;19.90;17.80;;;;;;;;;;5075564;28;20218;-74
2021/06/10 00:09:36;;;;;;;18.83;16.80;;;;;;;;;;5075528;28;20201;-73
2021/06/10 00:12:42;;;;;;;19.50;17.60;;;;;;;;;;5035526;28;20212;-73
2021/06/10 00:15:46;;;;;;;18.57;16.67;;;;;;;;;;5045219;28;20736;-73
2021/06/10 00:18:52;;;;;;;18.73;16.73;;;;;;;;;;5075093;28;20202;-74
2021/06/10 00:21:56;;;;;;;17.73;16.00;;;;;;;;;;5034927;28;20216;-73
2021/06/10 00:25:00;;;;;;;17.60;15.80;;;;;;;;;;5035377;28;20201;-73
2021/06/10 00:28:04;;;;;;;22.10;16.17;;;;;;;;;;5074545;28;20206;-73
2021/06/10 00:31:08;;;;;;;17.20;15.40;;;;;;;;;;5055355;28;20202;-73
2021/06/10 00:34:13;;;;;;;18.43;16.43;;;;;;;;;;5074273;28;20191;-73
2021/06/10 00:37:18;;;;;;;19.30;16.47;;;;;;;;;;5074837;28;20218;-73
2021/06/10 00:40:22;;;;;;;18.97;16.97;;;;;;;;;;5074728;28;20202;-73
2021/06/10 00:43:27;;;;;;;18.50;16.50;;;;;;;;;;5074624;28;20204;-73
2021/06/10 00:46:31;;;;;;;17.57;15.17;;;;;;;;;;5071086;28;20238;-73
2021/06/10 00:49:35;;;;;;;17.97;15.30;;;;;;;;;;5074174;28;20207;-73
2021/06/10 00:52:41;;;;;;;20.63;15.00;;;;;;;;;;5074755;28;20226;-73
2021/06/10 00:55:45;;;;;;;15.90;14.30;;;;;;;;;;5074132;28;20233;-73
2021/06/10 00:58:52;;;;;;;15.23;13.57;;;;;;;;;;5063463;28;20550;-73
2021/06/10 01:01:57;;;;;;;16.23;14.53;;;;;;;;;;5074302;28;20190;-73
2021/06/10 01:05:01;;;;;;;16.00;14.30;;;;;;;;;;5073843;28;20178;-74
2021/06/10 01:08:11;;;;;;;15.73;13.67;;;;;;;;;;5065206;28;20696;-73
2021/06/10 01:11:28;;;;;;;17.67;13.70;;;;;;;;;;5074022;28;20203;-73
2021/06/10 01:14:57;;;;;;;16.80;13.40;;;;;;;;;;5074082;28;20194;-73
2021/06/10 01:18:02;;;;;;;14.67;13.17;;;;;;;;;;5073907;28;20557;-73
2021/06/10 01:21:07;;;;;;;14.67;13.17;;;;;;;;;;5062688;28;20215;-73
2021/06/10 01:24:26;;;;;;;14.77;13.20;;;;;;;;;;5073839;28;20194;-73
2021/06/10 01:27:35;;;;;;;15.30;13.10;;;;;;;;;;5070044;28;20242;-73
2021/06/10 01:30:53;;;;;;;15.80;14.20;;;;;;;;;;5073760;28;20588;-73
2021/06/10 01:34:02;;;;;;;16.23;13.80;;;;;;;;;;5074034;28;20222;-73
2021/06/10 01:37:06;;;;;;;15.43;13.80;;;;;;;;;;5072536;28;20218;-73
2021/06/10 01:40:12;;;;;;;15.23;13.73;;;;;;;;;;5073413;28;20199;-73
2021/06/10 01:43:18;;;;;;;15.27;13.70;;;;;;;;;;5069702;28;20194;-73
2021/06/10 01:46:25;;;;;;;16.07;14.37;;;;;;;;;;5073348;28;20226;-73
2021/06/10 01:49:29;;;;;;;15.47;13.87;;;;;;;;;;5038828;28;20216;-73
2021/06/10 01:52:36;;;;;;;17.70;13.57;;;;;;;;;;5033873;28;20583;-74
2021/06/10 01:55:41;;;;;;;17.20;15.20;;;;;;;;;;5071824;28;20217;-73
2021/06/10 01:58:46;;;;;;;16.23;14.43;;;;;;;;;;5073514;28;20214;-73
2021/06/10 02:01:52;;;;;;;16.23;14.17;;;;;;;;;;5073059;28;20550;-73
2021/06/10 02:04:56;;;;;;;16.40;14.70;;;;;;;;;;5073593;28;20194;-73
2021/06/10 02:08:01;;;;;;;27.60;13.27;;;;;;;;;;5071013;28;20198;-73
2021/06/10 02:11:06;;;;;;;17.07;13.07;;;;;;;;;;5072169;28;20202;-73
2021/06/10 02:14:10;;;;;;;15.53;13.87;;;;;;;;;;5073034;28;20226;-73
2021/06/10 02:17:18;;;;;;;15.23;13.63;;;;;;;;;;5072813;28;20238;-72
2021/06/10 02:20:22;;;;;;;12.53;11.43;;;;;;;;;;5072372;28;20198;-73
2021/06/10 02:23:26;;;;;;;12.23;11.13;;;;;;;;;;5072244;28;20195;-73
2021/06/10 02:26:31;;;;;;;12.93;11.70;;;;;;;;;;5047583;28;20213;-73
2021/06/10 02:29:37;;;;;;;14.87;13.37;;;;;;;;;;5033372;28;20690;-73
2021/06/10 02:32:41;;;;;;;13.90;12.60;;;;;;;;;;5064303;28;20218;-73
2021/06/10 02:35:46;;;;;;;13.53;12.27;;;;;;;;;;5072247;28;20222;-73
2021/06/10 02:38:56;;;;;;;12.87;11.67;;;;;;;;;;5072839;28;20194;-73
2021/06/10 02:42:02;;;;;;;13.03;11.77;;;;;;;;;;5073040;28;20202;-72
2021/06/10 02:45:07;;;;;;;12.03;10.70;;;;;;;;;;5073258;28;20186;-73
2021/06/10 02:48:12;;;;;;;12.73;11.43;;;;;;;;;;5043083;28;20193;-72
2021/06/10 02:51:17;;;;;;;13.77;12.30;;;;;;;;;;5067547;28;20207;-72
2021/06/10 02:54:22;;;;;;;13.80;12.40;;;;;;;;;;5072773;22;20235;-74
2021/06/10 02:57:29;;;;;;;12.77;11.47;;;;;;;;;;5016987;28;20215;-73
2021/06/10 03:00:34;;;;;;;16.60;14.37;;;;;;;;;;5033280;28;20196;-75
2021/06/10 03:03:38;;;;;;;15.33;13.83;;;;;;;;;;5043217;28;20188;-74
2021/06/10 03:06:44;;;;;;;14.13;12.70;;;;;;;;;;5019317;28;20223;-74
2021/06/10 03:09:48;;;;;;;13.47;12.07;;;;;;;;;;5032976;28;20212;-74
2021/06/10 03:12:53;;;;;;;14.70;13.20;;;;;;;;;;5032633;28;20590;-73
2021/06/10 03:16:00;;;;;;;15.47;12.83;;;;;;;;;;5035037;28;20741;-73
2021/06/10 03:19:05;;;;;;;17.63;12.47;;;;;;;;;;5048084;28;20196;-73
2021/06/10 03:22:10;;;;;;;16.60;13.37;;;;;;;;;;5043789;28;20191;-73
2021/06/10 03:25:15;;;;;;;20.53;14.40;;;;;;;;;;5013178;28;20540;-73
2021/06/10 03:28:21;;;;;;;23.23;15.57;;;;;;;;;;5039067;28;20195;-73
2021/06/10 03:31:25;;;;;;;21.80;14.33;;;;;;;;;;5037030;28;20574;-73
2021/06/10 03:34:32;;;;;;;22.57;15.20;;;;;;;;;;5047944;28;20224;-73
2021/06/10 03:37:38;;;;;;;24.77;16.53;;;;;;;;;;5030012;28;20235;-73
2021/06/10 03:40:45;;;;;;;26.17;18.73;;;;;;;;;;5036347;28;20199;-73
2021/06/10 03:43:51;;;;;;;21.90;18.30;;;;;;;;;;5026291;28;20204;-73
2021/06/10 03:46:56;;;;;;;19.50;16.27;;;;;;;;;;5026716;28;20721;-73
2021/06/10 03:50:01;;;;;;;19.23;16.07;;;;;;;;;;5041241;28;20196;-73
2021/06/10 03:53:08;;;;;;;18.30;15.90;;;;;;;;;;5016762;28;20552;-73
2021/06/10 03:56:13;;;;;;;36.40;16.77;;;;;;;;;;5040238;28;20226;-73
2021/06/10 03:59:18;;;;;;;18.97;15.17;;;;;;;;;;5054768;28;20219;-73
2021/06/10 04:02:22;;;;;;;18.57;15.20;;;;;;;;;;5036861;28;20203;-73
2021/06/10 04:05:30;;;;;;;24.47;15.47;;;;;;;;;;5049170;28;20657;-73
2021/06/10 04:08:34;;;;;;;20.43;15.77;;;;;;;;;;5033901;28;20200;-73
2021/06/10 04:11:39;;;;;;;19.13;15.27;;;;;;;;;;5015186;28;20189;-73
2021/06/10 04:14:44;;;;;;;23.23;16.30;;;;;;;;;;5046225;28;20211;-73
2021/06/10 04:17:48;;;;;;;16.10;14.40;;;;;;;;;;5053060;28;20235;-73
2021/06/10 04:20:52;;;;;;;31.67;15.07;;;;;;;;;;5037353;28;20192;-73
2021/06/10 04:23:56;;;;;;;20.90;16.63;;;;;;;;;;5035511;28;20188;-72
2021/06/10 04:27:01;;;;;;;26.10;16.13;;;;;;;;;;5024354;28;20583;-73
2021/06/10 04:30:11;;;;;;;26.83;16.80;;;;;;;;;;5028165;28;20195;-72
2021/06/10 04:33:15;;;;;;;18.83;14.70;;;;;;;;;;5054095;28;20215;-73
2021/06/10 04:36:19;;;;;;;18.97;14.70;;;;;;;;;;5025012;28;20223;-73
2021/06/10 04:39:23;;;;;;;20.03;16.67;;;;;;;;;;5052706;28;20662;-73
2021/06/10 04:42:28;;;;;;;31.70;16.80;;;;;;;;;;5043073;28;20195;-73
2021/06/10 04:45:32;;;;;;;18.83;16.57;;;;;;;;;;5055062;28;20672;-73
2021/06/10 04:48:37;;;;;;;18.70;16.80;;;;;;;;;;5015655;28;20208;-74
2021/06/10 04:51:41;;;;;;;21.87;18.67;;;;;;;;;;5049673;28;20219;-73
2021/06/10 04:54:45;;;;;;;50.80;19.43;;;;;;;;;;5054675;28;20226;-73
2021/06/10 04:57:49;;;;;;;61.93;21.17;;;;;;;;;;5027781;28;20244;-73
2021/06/10 05:00:54;;;;;;;57.33;19.50;;;;;;;;;;5039414;28;20206;-73
2021/06/10 05:03:58;;;;;;;71.77;21.60;;;;;;;;;;5053982;28;20199;-73
2021/06/10 05:07:02;;;;;;;23.53;20.60;;;;;;;;;;5032517;28;20220;-73
2021/06/10 05:10:06;;;;;;;25.30;22.00;;;;;;;;;;5015266;28;20193;-73
2021/06/10 05:13:11;;;;;;;23.07;20.67;;;;;;;;;;5014050;28;20544;-73
2021/06/10 05:16:15;;;;;;;29.30;20.33;;;;;;;;;;5025926;28;20721;-73
2021/06/10 05:19:19;;;;;;;33.57;21.97;;;;;;;;;;5034496;28;20192;-73
2021/06/10 05:22:23;;;;;;;28.33;23.00;;;;;;;;;;5035866;28;20195;-73
2021/06/10 05:25:27;;;;;;;35.37;22.53;;;;;;;;;;5051540;28;20222;-73
2021/06/10 05:28:34;;;;;;;25.00;21.07;;;;;;;;;;5052316;28;20199;-73
2021/06/10 05:31:38;;;;;;;46.43;25.10;;;;;;;;;;5045726;28;20192;-73
2021/06/10 05:34:43;;;;;;;91.33;25.33;;;;;;;;;;5036700;28;20625;-73
2021/06/10 05:37:47;;;;;;;33.27;25.07;;;;;;;;;;5046538;28;20607;-73
2021/06/10 05:40:52;;;;;;;28.73;24.70;;;;;;;;;;5033498;28;20188;-73
2021/06/10 05:43:56;;;;;;;60.03;24.00;;;;;;;;;;5014246;28;20532;-73
2021/06/10 05:47:01;;;;;;;31.43;24.23;;;;;;;;;;5043418;28;20227;-73
2021/06/10 05:50:07;;;;;;;29.70;23.37;;;;;;;;;;5043889;28;20207;-73
2021/06/10 05:53:11;;;;;;;32.10;25.23;;;;;;;;;;5053236;28;20650;-73
2021/06/10 05:56:16;;;;;;;66.20;24.97;;;;;;;;;;5049592;28;20215;-73
2021/06/10 05:59:20;;;;;;;49.90;24.50;;;;;;;;;;5052682;28;20246;-73
2021/06/10 06:02:24;;;;;;;29.67;25.00;;;;;;;;;;5042809;28;20203;-73
2021/06/10 06:05:29;;;;;;;34.93;24.33;;;;;;;;;;5052282;28;20183;-73
2021/06/10 06:08:34;;;;;;;25.83;21.83;;;;;;;;;;5044431;28;20192;-73
2021/06/10 06:11:38;;;;;;;24.43;20.97;;;;;;;;;;5053365;28;20196;-73
2021/06/10 06:14:45;;;;;;;29.03;23.63;;;;;;;;;;5053090;28;20227;-73
2021/06/10 06:17:49;;;;;;;29.47;24.47;;;;;;;;;;5013379;28;20228;-73
2021/06/10 06:20:53;;;;;;;41.57;25.87;;;;;;;;;;5050418;28;20207;-73
2021/06/10 06:23:58;;;;;;;26.77;21.43;;;;;;;;;;5044050;28;20203;-73
2021/06/10 06:27:02;;;;;;;40.27;25.00;;;;;;;;;;5032357;28;20227;-72
2021/06/10 06:30:08;;;;;;;34.43;24.17;;;;;;;;;;5043073;28;20207;-72
2021/06/10 06:33:12;;;;;;;31.27;26.60;;;;;;;;;;5053052;28;20562;-72
2021/06/10 06:36:16;;;;;;;31.57;26.27;;;;;;;;;;5052280;28;20211;-72
2021/06/10 06:39:21;;;;;;;88.17;29.97;;;;;;;;;;5031403;28;20215;-73
2021/06/10 06:42:25;;;;;;;38.93;30.03;;;;;;;;;;5040697;28;20199;-73
2021/06/10 06:45:29;;;;;;;39.47;30.53;;;;;;;;;;5043581;28;20191;-73
2021/06/10 06:48:33;;;;;;;39.40;29.93;;;;;;;;;;5036273;28;20199;-73
2021/06/10 06:51:37;;;;;;;38.93;29.90;;;;;;;;;;5051684;28;20199;-72
2021/06/10 06:54:41;;;;;;;39.00;32.20;;;;;;;;;;5048493;28;20229;-74
2021/06/10 06:57:46;;;;;;;36.03;30.47;;;;;;;;;;5043066;28;20231;-73
2021/06/10 07:00:50;;;;;;;38.87;30.27;;;;;;;;;;5046083;28;20191;-73
2021/06/10 07:03:54;;;;;;;36.40;30.47;;;;;;;;;;5032823;28;20187;-73
2021/06/10 07:06:58;;;;;;;33.33;28.87;;;;;;;;;;5035903;28;20717;-73
2021/06/10 07:10:04;;;;;;;35.53;29.30;;;;;;;;;;5042856;28;20204;-73
2021/06/10 07:13:09;;;;;;;35.47;31.53;;;;;;;;;;5016092;28;20651;-73
2021/06/10 07:16:13;;;;;;;35.47;28.77;;;;;;;;;;5017058;28;20209;-73
2021/06/10 07:19:17;;;;;;;34.33;30.63;;;;;;;;;;5025105;28;20196;-73
2021/06/10 07:22:21;;;;;;;35.10;30.63;;;;;;;;;;5046661;28;20267;-73
2021/06/10 07:25:26;;;;;;;31.53;28.20;;;;;;;;;;5036444;28;20184;-73
2021/06/10 07:28:30;;;;;;;32.77;29.27;;;;;;;;;;5042457;28;20188;-73
2021/06/10 07:31:35;;;;;;;36.07;31.57;;;;;;;;;;5054338;28;20198;-73
2021/06/10 07:34:40;;;;;;;34.90;29.37;;;;;;;;;;5052314;28;20226;-73
2021/06/10 07:37:44;;;;;;;35.13;29.83;;;;;;;;;;5037997;28;20231;-73
2021/06/10 07:40:48;;;;;;;29.93;26.67;;;;;;;;;;5036374;28;20551;-73
2021/06/10 07:43:52;;;;;;;31.07;27.67;;;;;;;;;;5036403;28;20196;-73
2021/06/10 07:46:57;;;;;;;28.53;25.53;;;;;;;;;;5036357;28;20224;-73
2021/06/10 07:50:01;;;;;;;26.03;23.40;;;;;;;;;;5044717;28;20199;-73
2021/06/10 07:53:06;;;;;;;30.37;27.17;;;;;;;;;;5046047;28;20678;-73
2021/06/10 07:56:10;;;;;;;26.00;23.30;;;;;;;;;;5036211;28;20235;-73
2021/06/10 07:59:16;;;;;;;24.80;22.27;;;;;;;;;;5036877;28;20208;-73
2021/06/10 08:02:20;;;;;;;22.93;20.60;;;;;;;;;;5036044;28;20195;-73
2021/06/10 08:05:25;;;;;;;24.13;20.10;;;;;;;;;;5035733;28;20215;-73
2021/06/10 08:08:29;;;;;;;22.50;20.27;;;;;;;;;;5051743;28;20207;-73
2021/06/10 08:11:35;;;;;;;22.47;19.10;;;;;;;;;;5003958;28;20206;-73
2021/06/10 08:14:39;;;;;;;19.77;17.77;;;;;;;;;;5015996;28;20210;-73
2021/06/10 08:17:44;;;;;;;18.65;16.75;;;;;;;;;;5014775;28;20297;-73
2021/06/10 08:20:48;;;;;;;18.42;16.73;;;;;;;;;;5015734;28;20195;-73
2021/06/10 08:23:52;;;;;;;18.30;16.50;;;;;;;;;;5016196;28;20641;-72
2021/06/10 08:26:56;;;;;;;18.65;16.75;;;;;;;;;;5015741;28;20226;-73
2021/06/10 08:30:00;;;;;;;14.25;12.95;;;;;;;;;;5016378;28;20190;-73
2021/06/10 08:33:05;;;;;;;13.20;11.88;;;;;;;;;;5015489;28;20556;-73
2021/06/10 08:36:10;;;;;;;11.38;10.27;;;;;;;;;;5015233;28;20241;-74
2021/06/10 08:39:14;;;;;;;12.65;10.85;;;;;;;;;;5015871;28;20213;-73
2021/06/10 08:42:18;;;;;;;11.57;10.23;;;;;;;;;;5015283;28;20196;-73
2021/06/10 08:45:27;;;;;;;13.00;11.63;;;;;;;;;;5015247;28;20203;-73
2021/06/10 08:48:34;;;;;;;13.93;12.73;;;;;;;;;;5015702;28;20187;-73
2021/06/10 08:51:39;;;;;;;17.65;15.95;;;;;;;;;;5014568;28;20661;-73
2021/06/10 08:54:43;;;;;;;15.73;14.30;;;;;;;;;;5047635;23;20253;-88
2021/06/10 08:57:48;;;;;;;16.10;12.93;;;;;;;;;;5051437;28;20193;-88
2021/06/10 09:00:54;;;;;;;14.80;13.40;;;;;;;;;;5040381;28;20210;-88
2021/06/10 09:03:59;;;;;;;15.95;14.48;;;;;;;;;;5051395;28;20186;-88
2021/06/10 09:07:04;;;;;;;15.57;14.07;;;;;;;;;;5020523;28;20187;-88
2021/06/10 09:10:09;;;;;;;24.20;19.05;;;;;;;;;;5020472;28;20545;-88
2021/06/10 09:13:13;;;;;;;17.40;15.63;;;;;;;;;;5031387;28;20206;-88
2021/06/10 09:16:19;;;;;;;17.83;14.30;;;;;;;;;;5031079;28;20241;-88
2021/06/10 09:19:30;;;;;;;15.23;12.80;;;;;;;;;;5020255;28;20188;-89
2021/06/10 09:22:35;;;;;;;15.77;14.30;;;;;;;;;;5019860;28;20662;-88
2021/06/10 09:25:43;;;;;;;16.80;14.88;;;;;;;;;;5031009;28;20221;-88
2021/06/10 09:28:51;;;;;;;17.13;15.52;;;;;;;;;;5019839;28;20188;-89
2021/06/10 09:31:56;;;;;;;14.02;12.63;;;;;;;;;;5042518;28;20191;-88
2021/06/10 09:35:05;;;;;;;14.35;12.95;;;;;;;;;;5030919;28;20718;-88
2021/06/10 09:38:16;;;;;;;13.82;12.52;;;;;;;;;;5019852;28;20209;-88
2021/06/10 09:41:20;;;;;;;10.88;9.98;;;;;;;;;;5019733;28;20680;-88
2021/06/10 09:44:40;;;;;;;11.70;9.85;;;;;;;;;;5019161;28;20205;-88
2021/06/10 09:47:51;;;;;;;10.43;9.35;;;;;;;;;;5019490;28;20194;-88
2021/06/10 09:50:56;;;;;;;11.93;10.70;;;;;;;;;;5030461;28;20179;-88
2021/06/10 09:54:00;;;;;;;10.60;9.63;;;;;;;;;;5019489;28;20203;-88
2021/06/10 09:57:04;;;;;;;10.48;8.20;;;;;;;;;;5049613;28;20187;-89
2021/06/10 10:00:08;;;;;;;13.10;9.10;;;;;;;;;;5053266;28;20568;-89
2021/06/10 10:03:22;;;;;;;13.05;9.98;;;;;;;;;;5054491;28;20195;-88
2021/06/10 10:06:27;;;;;;;11.35;10.15;;;;;;;;;;5057996;28;20214;-89
2021/06/10 10:09:31;;;;;;;9.50;8.60;;;;;;;;;;5050236;28;20193;-88
2021/06/10 10:12:42;;;;;;;7.25;6.55;;;;;;;;;;5042188;28;20186;-88
2021/06/10 10:15:47;;;;;;;7.85;7.03;;;;;;;;;;5010187;28;20224;-89
2021/06/10 10:18:53;;;;;;;8.45;7.65;;;;;;;;;;5022007;28;20643;-88
2021/06/10 10:21:57;;;;;;;7.40;6.35;;;;;;;;;;5014854;28;20191;-81
2021/06/10 10:25:04;;;;;;;5.35;4.70;;;;;;;;;;5018826;28;20227;-82
2021/06/10 10:28:10;;;;;;;7.03;5.85;;;;;;;;;;5040904;28;20187;-82
2021/06/10 10:31:15;;;;;;;6.63;5.97;;;;;;;;;;5035826;28;20650;-83
2021/06/10 10:34:28;;;;;;;7.20;6.00;;;;;;;;;;5019399;28;20176;-83
2021/06/10 10:37:38;;;;;;;6.47;5.93;;;;;;;;;;5054568;28;20169;-82
2021/06/10 10:41:00;;;;;;;6.53;5.80;;;;;;;;;;5061458;28;20199;-82
2021/06/10 10:44:09;;;;;;;6.20;5.70;;;;;;;;;;5060279;28;20187;-82
2021/06/10 10:47:14;;;;;;;6.15;5.55;;;;;;;;;;5048626;28;20531;-82
2021/06/10 10:50:37;;;;;;;5.65;5.07;;;;;;;;;;5050205;28;20188;-83
2021/06/10 10:53:47;;;;;;;7.25;5.15;;;;;;;;;;5061027;28;20191;-82
2021/06/10 10:56:51;;;;;;;8.82;4.88;;;;;;;;;;5047199;28;20210;-82
2021/06/10 10:59:56;;;;;;;5.20;4.80;;;;;;;;;;5073907;28;20180;-82
2021/06/10 11:03:27;;;;;;;5.72;5.13;;;;;;;;;;5061023;28;20187;-82
2021/06/10 11:06:34;;;;;;;9.05;5.55;;;;;;;;;;5048654;28;20698;-81
2021/06/10 11:09:42;;;;;;;5.55;5.05;;;;;;;;;;5030185;28;20184;-81
2021/06/10 11:12:51;;;;;;;5.97;5.38;;;;;;;;;;5030779;28;20181;-82
2021/06/10 11:16:03;;;;;;;5.95;5.40;;;;;;;;;;5027367;28;20224;-81
2021/06/10 11:19:21;;;;;;;6.07;4.72;;;;;;;;;;5018568;28;20194;-81
2021/06/10 11:22:38;;;;;;;5.03;4.53;;;;;;;;;;5030869;28;20556;-81
2021/06/10 11:25:50;;;;;;;5.85;5.03;;;;;;;;;;5033768;28;20217;-81
2021/06/10 11:29:01;;;;;;;5.57;5.18;;;;;;;;;;5034011;28;20177;-81
2021/06/10 11:32:28;;;;;;;4.97;4.55;;;;;;;;;;5024489;28;20197;-82
2021/06/10 11:35:37;;;;;;;4.70;4.40;;;;;;;;;;5065999;28;20565;-81
2021/06/10 11:38:43;;;;;;;11.10;5.57;;;;;;;;;;5030592;28;20184;-81
2021/06/10 11:41:47;;;;;;;7.88;4.72;;;;;;;;;;5065187;28;20184;-82
2021/06/10 11:44:52;;;;;;;4.93;4.53;;;;;;;;;;5043783;28;20219;-82
2021/06/10 11:47:56;;;;;;;4.90;4.35;;;;;;;;;;5029661;28;20180;-82
2021/06/10 11:51:01;;;;;;;9.20;4.50;;;;;;;;;;5042813;28;20204;-82
2021/06/10 11:54:13;;;;;;;3.80;3.50;;;;;;;;;;5033104;28;20236;-82
2021/06/10 11:57:28;;;;;;;4.57;3.88;;;;;;;;;;5025772;28;20205;-82
2021/06/10 12:00:38;;;;;;;9.95;3.65;;;;;;;;;;5053432;28;20188;-82
2021/06/10 12:03:45;;;;;;;3.80;3.55;;;;;;;;;;5057050;28;20197;-82
2021/06/10 12:07:23;;;;;;;5.38;4.22;;;;;;;;;;5052079;28;20192;-82
2021/06/10 12:10:27;;;;;;;4.95;3.97;;;;;;;;;;5030549;28;20192;-82
2021/06/10 12:13:42;;;;;;;4.72;3.95;;;;;;;;;;5064653;28;20551;-82
2021/06/10 12:16:46;;;;;;;6.60;4.18;;;;;;;;;;5039478;28;20667;-81
2021/06/10 12:20:35;;;;;;;6.55;4.78;;;;;;;;;;5045763;28;20208;-84
2021/06/10 12:23:42;;;;;;;10.35;5.05;;;;;;;;;;5030256;28;20196;-84
2021/06/10 12:26:46;;;;;;;4.50;4.10;;;;;;;;;;5063828;28;20172;-84
2021/06/10 12:29:51;;;;;;;4.30;3.90;;;;;;;;;;5044683;28;20181;-84
2021/06/10 12:33:12;;;;;;;4.85;3.70;;;;;;;;;;5058364;28;20196;-84
2021/06/10 12:36:24;;;;;;;4.07;3.72;;;;;;;;;;5050154;28;20221;-84
2021/06/10 12:39:31;;;;;;;4.10;3.75;;;;;;;;;;5045462;28;20192;-84
2021/06/10 12:42:35;;;;;;;6.00;4.13;;;;;;;;;;5048682;28;20208;-84
2021/06/10 12:45:40;;;;;;;3.67;3.38;;;;;;;;;;5058404;28;20685;-84
2021/06/10 12:48:58;;;;;;;3.88;3.58;;;;;;;;;;5058768;28;20188;-84
2021/06/10 12:52:16;;;;;;;4.15;3.47;;;;;;;;;;5065122;28;20191;-84
2021/06/10 12:55:28;;;;;;;4.40;4.00;;;;;;;;;;5015615;28;20229;-84
2021/06/10 12:58:32;;;;;;;3.55;3.28;;;;;;;;;;5052202;28;20188;-83
2021/06/10 13:01:37;;;;;;;3.85;3.53;;;;;;;;;;5041726;28;20208;-84
2021/06/10 13:04:47;;;;;;;4.03;3.70;;;;;;;;;;5077304;28;20223;-84
2021/06/10 13:07:56;;;;;;;4.43;3.78;;;;;;;;;;5042822;28;20188;-84
2021/06/10 13:11:15;;;;;;;3.95;3.65;;;;;;;;;;5025527;28;20672;-83
2021/06/10 13:14:20;;;;;;;3.95;3.55;;;;;;;;;;5047421;28;20187;-84
2021/06/10 13:17:50;;;;;;;6.70;6.00;;;;;;;;;;5030787;28;20204;-84
2021/06/10 13:21:16;;;;;;;3.90;3.60;;;;;;;;;;5023875;28;20186;-84
2021/06/10 13:24:20;;;;;;;6.55;3.92;;;;;;;;;;5024921;28;20182;-84
2021/06/10 13:27:24;;;;;;;4.35;3.60;;;;;;;;;;5055314;28;20172;-83
2021/06/10 13:30:28;;;;;;;3.97;3.67;;;;;;;;;;5044125;28;20172;-83
2021/06/10 13:33:33;;;;;;;3.72;3.42;;;;;;;;;;5032545;28;20196;-83
2021/06/10 13:40:01;;;;;;;3.60;3.30;;;;;;;;;;5064439;28;20188;-83
2021/06/10 13:43:06;;;;;;;3.63;3.33;;;;;;;;;;5047715;28;20192;-84
2021/06/10 13:46:11;;;;;;;3.95;3.55;;;;;;;;;;5047403;28;20212;-84
2021/06/10 13:49:15;;;;;;;4.03;3.58;;;;;;;;;;5035949;28;20185;-84
2021/06/10 13:52:20;;;;;;;3.80;3.50;;;;;;;;;;5054289;28;20180;-83
2021/06/10 13:55:24;;;;;;;4.68;3.60;;;;;;;;;;5074149;28;20227;-83
2021/06/10 13:58:28;;;;;;;5.55;3.55;;;;;;;;;;5027505;28;20177;-83
2021/06/10 14:01:32;;;;;;;3.20;2.90;;;;;;;;;;5042725;28;20662;-86
2021/06/10 14:04:36;;;;;;;3.28;2.97;;;;;;;;;;5033367;28;20185;-86
2021/06/10 14:07:41;;;;;;;3.70;3.20;;;;;;;;;;5027203;28;20200;-86
2021/06/10 14:10:46;;;;;;;3.50;3.20;;;;;;;;;;5040398;28;20214;-86
2021/06/10 14:13:53;;;;;;;3.40;2.85;;;;;;;;;;5038944;28;20196;-87
2021/06/10 14:16:57;;;;;;;18.85;5.43;;;;;;;;;;5048980;28;20204;-87
2021/06/10 14:20:03;;;;;;;3.40;3.15;;;;;;;;;;5038725;28;20686;-86
2021/06/10 14:23:09;;;;;;;3.58;2.90;;;;;;;;;;5069093;28;20192;-86
2021/06/10 14:26:13;;;;;;;4.88;3.08;;;;;;;;;;5041770;28;20223;-86
2021/06/10 14:32:41;;;;;;;9.85;3.40;;;;;;;;;;5029054;28;20189;-87
2021/06/10 14:35:46;;;;;;;4.38;2.80;;;;;;;;;;5037222;28;20220;-87
2021/06/10 14:38:51;;;;;;;3.60;3.15;;;;;;;;;;5024772;28;20185;-86
2021/06/10 14:41:56;;;;;;;6.85;3.40;;;;;;;;;;5045693;28;20176;-86
2021/06/10 14:45:01;;;;;;;9.82;3.80;;;;;;;;;;5017643;28;20703;-86
2021/06/10 14:48:06;;;;;;;4.88;3.33;;;;;;;;;;5013545;28;20651;-86
2021/06/10 14:51:12;;;;;;;13.45;3.42;;;;;;;;;;5038470;28;20550;-86
2021/06/10 14:54:16;;;;;;;3.35;2.70;;;;;;;;;;5037839;28;20200;-86
2021/06/10 14:57:21;;;;;;;3.28;3.08;;;;;;;;;;5019336;28;20209;-86
2021/06/10 15:00:25;;;;;;;3.35;3.15;;;;;;;;;;5020121;28;20185;-86
2021/06/10 15:03:29;;;;;;;11.40;4.45;;;;;;;;;;5032474;28;20188;-84
2021/06/10 15:06:33;;;;;;;4.43;3.17;;;;;;;;;;5021223;28;20228;-86
2021/06/10 15:09:37;;;;;;;8.18;4.13;;;;;;;;;;5021618;28;20196;-88
2021/06/10 15:12:42;;;;;;;5.38;3.28;;;;;;;;;;5015673;28;20191;-86
2021/06/10 15:15:46;;;;;;;4.07;3.53;;;;;;;;;;5024038;28;20211;-86
2021/06/10 15:18:50;;;;;;;4.15;3.65;;;;;;;;;;5031483;28;20184;-86
2021/06/10 15:21:55;;;;;;;5.22;3.50;;;;;;;;;;5052622;28;20660;-86
2021/06/10 15:24:59;;;;;;;5.80;3.95;;;;;;;;;;5039403;28;20219;-86
2021/06/10 15:28:03;;;;;;;8.75;3.88;;;;;;;;;;5038097;28;20650;-86
2021/06/10 15:31:07;;;;;;;8.10;3.90;;;;;;;;;;5016687;28;20204;-86
2021/06/10 15:34:11;;;;;;;5.25;3.42;;;;;;;;;;5033492;28;20200;-85
2021/06/10 15:37:15;;;;;;;6.93;3.55;;;;;;;;;;5028962;28;20218;-86
2021/06/10 15:40:19;;;;;;;4.30;2.92;;;;;;;;;;5035850;28;20205;-86
2021/06/10 15:43:23;;;;;;;3.38;3.08;;;;;;;;;;5033442;28;20192;-85
2021/06/10 15:46:29;;;;;;;9.68;3.80;;;;;;;;;;5016855;28;20216;-86
2021/06/10 15:49:37;;;;;;;6.60;3.40;;;;;;;;;;5025668;28;20185;-87
2021/06/10 15:52:42;;;;;;;4.03;3.30;;;;;;;;;;5022221;28;20186;-86
2021/06/10 15:55:46;;;;;;;10.43;4.03;;;;;;;;;;5056413;28;20225;-86
2021/06/10 15:58:51;;;;;;;4.63;3.40;;;;;;;;;;5020767;28;20202;-86
2021/06/10 16:01:55;;;;;;;4.20;3.30;;;;;;;;;;5028707;28;20208;-85
2021/06/10 16:05:00;;;;;;;11.83;3.93;;;;;;;;;;5028649;28;20693;-86
2021/06/10 16:08:05;;;;;;;3.70;2.80;;;;;;;;;;5039416;28;20699;-85
2021/06/10 16:11:10;;;;;;;3.00;2.57;;;;;;;;;;5039181;28;20198;-85
2021/06/10 16:14:15;;;;;;;3.53;2.63;;;;;;;;;;5008944;28;20185;-86
2021/06/10 16:17:19;;;;;;;7.67;2.80;;;;;;;;;;5026440;28;20215;-85
2021/06/10 16:20:24;;;;;;;14.90;3.63;;;;;;;;;;5020658;28;20192;-86
2021/06/10 16:23:28;;;;;;;20.37;3.17;;;;;;;;;;5027966;28;20213;-85
2021/06/10 16:26:32;;;;;;;4.03;3.23;;;;;;;;;;5038946;28;20215;-85
2021/06/10 16:29:36;;;;;;;6.47;2.67;;;;;;;;;;5022857;28;20684;-84
2021/06/10 16:32:41;;;;;;;12.53;3.33;;;;;;;;;;5017627;28;20186;-85
2021/06/10 16:35:45;;;;;;;17.97;3.10;;;;;;;;;;4998390;28;20231;-85
2021/06/10 16:38:50;;;;;;;7.23;2.53;;;;;;;;;;4996483;28;20207;-84
2021/06/10 16:41:54;;;;;;;4.23;2.60;;;;;;;;;;5006266;28;20205;-85
2021/06/10 16:44:59;;;;;;;3.03;2.20;;;;;;;;;;5024315;28;20224;-85
2021/06/10 16:48:04;;;;;;;10.07;2.90;;;;;;;;;;5024454;28;20526;-85
2021/06/10 16:51:08;;;;;;;12.03;3.87;;;;;;;;;;5021404;28;20197;-85
2021/06/10 16:54:12;;;;;;;4.00;3.60;;;;;;;;;;4997194;28;20193;-85
2021/06/10 16:57:17;;;;;;;9.80;4.37;;;;;;;;;;5026255;28;20215;-85
2021/06/10 17:00:31;;;;;;;6.67;4.23;;;;;;;;;;5024662;28;20200;-85
2021/06/10 17:06:58;;;;;;;10.40;3.77;;;;;;;;;;5015451;28;20185;-86
2021/06/10 17:10:03;;;;;;;37.80;5.83;;;;;;;;;;5000364;28;20204;-86
2021/06/10 17:13:09;;;;;;;6.97;3.93;;;;;;;;;;5011936;28;20181;-86
2021/06/10 17:16:13;;;;;;;12.30;5.57;;;;;;;;;;5011777;28;20552;-86
2021/06/10 17:19:17;;;;;;;13.63;4.40;;;;;;;;;;5034673;28;20671;-86
2021/06/10 17:22:21;;;;;;;6.67;3.50;;;;;;;;;;5011186;28;20188;-86
2021/06/10 17:25:27;;;;;;;5.00;3.40;;;;;;;;;;5011226;28;20220;-86
2021/06/10 17:28:32;;;;;;;3.57;3.23;;;;;;;;;;5011464;28;20181;-86
2021/06/10 17:31:41;;;;;;;5.93;3.17;;;;;;;;;;5011664;28;20188;-86
2021/06/10 17:34:45;;;;;;;2.93;2.57;;;;;;;;;;4999928;28;20220;-86
2021/06/10 17:37:49;;;;;;;2.93;2.30;;;;;;;;;;5011718;28;20208;-86
2021/06/10 17:40:54;;;;;;;11.73;3.27;;;;;;;;;;5011684;28;20185;-85
2021/06/10 17:43:58;;;;;;;4.47;2.40;;;;;;;;;;5022389;28;20173;-86
2021/06/10 17:47:03;;;;;;;3.40;2.30;;;;;;;;;;5022644;28;20185;-86
2021/06/10 17:50:09;;;;;;;4.37;2.47;;;;;;;;;;5011266;28;20177;-86
2021/06/10 17:53:14;;;;;;;2.60;2.40;;;;;;;;;;5011420;28;20177;-86
2021/06/10 17:56:19;;;;;;;2.50;2.30;;;;;;;;;;4999529;28;20228;-86
2021/06/10 17:59:23;;;;;;;2.50;2.30;;;;;;;;;;5010803;28;20651;-86
2021/06/10 18:02:28;;;;;;;4.40;2.33;;;;;;;;;;5011077;28;20184;-86
2021/06/10 18:05:33;;;;;;;3.33;2.50;;;;;;;;;;5010686;28;20216;-85
2021/06/10 18:08:38;;;;;;;11.63;2.70;;;;;;;;;;5010883;28;20178;-85
2021/06/10 18:11:41;;;;;;;3.77;2.17;;;;;;;;;;5022189;28;20173;-86
2021/06/10 18:14:46;;;;;;;2.27;2.07;;;;;;;;;;5033543;28;20559;-86
2021/06/10 18:17:50;;;;;;;3.00;2.27;;;;;;;;;;5021648;28;20220;-86
2021/06/10 18:20:55;;;;;;;3.13;2.50;;;;;;;;;;5016115;28;20617;-86
2021/06/10 18:24:00;;;;;;;9.73;2.93;;;;;;;;;;5010670;28;20177;-86
2021/06/10 18:27:04;;;;;;;2.60;2.40;;;;;;;;;;5010300;28;20177;-86